createdAt,value
2023-05-17T00:01:17.875Z,3.13
2023-05-17T00:03:44.970Z,2.88
2023-05-17T00:06:12.193Z,3.25
2023-05-17T00:08:39.320Z,2.90
2023-05-17T00:11:06.449Z,3.25
2023-05-17T00:13:33.565Z,3.03
2023-05-17T00:16:00.712Z,3.00
2023-05-17T00:18:27.834Z,2.78
2023-05-17T00:20:55.023Z,2.80
2023-05-17T00:23:22.136Z,2.92
2023-05-17T00:25:49.318Z,3.05
2023-05-17T00:28:16.431Z,2.70
2023-05-17T00:30:43.577Z,3.05
2023-05-17T00:33:10.641Z,2.50
2023-05-17T00:35:37.740Z,3.00
2023-05-17T00:38:04.823Z,3.00
2023-05-17T00:40:31.998Z,2.63
2023-05-17T00:42:59.085Z,2.78
2023-05-17T00:45:26.334Z,2.70
2023-05-17T00:47:53.596Z,3.03
2023-05-17T00:50:20.874Z,2.92
2023-05-17T00:52:47.973Z,2.60
2023-05-17T00:55:15.139Z,2.90
2023-05-17T00:57:42.379Z,2.92
2023-05-17T01:00:09.796Z,2.70
2023-05-17T01:02:37.158Z,2.70
2023-05-17T01:05:04.720Z,2.65
2023-05-17T01:07:32.138Z,2.83
2023-05-17T01:09:59.222Z,2.88
2023-05-17T01:12:37.099Z,3.47
2023-05-17T01:15:08.374Z,2.78
2023-05-17T01:17:44.801Z,3.35
2023-05-17T01:20:22.389Z,3.28
2023-05-17T01:22:49.705Z,2.90
2023-05-17T01:25:23.358Z,2.92
2023-05-17T01:27:50.614Z,3.20
2023-05-17T01:30:18.188Z,4.18
2023-05-17T01:32:45.336Z,3.45
2023-05-17T01:35:12.640Z,3.42
2023-05-17T01:37:40.072Z,3.25
2023-05-17T01:40:08.861Z,3.53
2023-05-17T01:42:36.378Z,4.32
2023-05-17T01:45:03.542Z,4.18
2023-05-17T01:47:33.866Z,3.78
2023-05-17T01:50:01.144Z,4.63
2023-05-17T01:52:31.811Z,5.05
2023-05-17T01:55:17.913Z,5.22
2023-05-17T01:57:45.229Z,5.47
2023-05-17T02:00:12.507Z,4.85
2023-05-17T02:02:39.688Z,4.50
2023-05-17T02:05:07.145Z,5.15
2023-05-17T02:07:34.362Z,5.20
2023-05-17T02:10:01.492Z,5.38
2023-05-17T02:12:28.868Z,5.57
2023-05-17T02:14:56.054Z,5.32
2023-05-17T02:17:23.181Z,5.20
2023-05-17T02:19:50.407Z,4.90
2023-05-17T02:22:17.574Z,5.50
2023-05-17T02:24:44.641Z,5.88
2023-05-17T02:27:11.712Z,5.80
2023-05-17T02:29:38.883Z,5.60
2023-05-17T02:32:06.280Z,5.47
2023-05-17T02:34:33.385Z,5.55
2023-05-17T02:37:00.536Z,5.38
2023-05-17T02:39:27.683Z,6.30
2023-05-17T02:41:54.886Z,6.15
2023-05-17T02:44:21.968Z,5.72
2023-05-17T02:46:49.168Z,6.00
2023-05-17T02:49:16.312Z,5.45
2023-05-17T02:51:43.440Z,6.80
2023-05-17T02:54:10.617Z,6.47
2023-05-17T02:56:37.737Z,6.15
2023-05-17T02:59:04.860Z,5.25
2023-05-17T03:01:32.032Z,6.05
2023-05-17T03:03:59.384Z,5.43
2023-05-17T03:06:26.638Z,6.32
2023-05-17T03:08:53.756Z,5.97
2023-05-17T03:11:21.034Z,5.97
2023-05-17T03:13:51.532Z,6.32
2023-05-17T03:16:18.994Z,6.07
2023-05-17T03:18:46.288Z,6.25
2023-05-17T03:21:13.468Z,6.30
2023-05-17T03:23:40.709Z,5.53
2023-05-17T03:26:07.814Z,5.63
2023-05-17T03:28:34.937Z,5.50
2023-05-17T03:31:02.194Z,5.95
2023-05-17T03:33:29.499Z,6.32
2023-05-17T03:35:56.662Z,6.07
2023-05-17T03:38:23.701Z,6.32
2023-05-17T03:40:52.092Z,5.68
2023-05-17T03:43:19.161Z,5.80
2023-05-17T03:45:46.277Z,5.28
2023-05-17T03:48:13.410Z,5.57
2023-05-17T03:50:43.403Z,5.93
2023-05-17T03:53:10.566Z,5.35
2023-05-17T03:55:37.917Z,6.45
2023-05-17T03:58:05.043Z,5.85
2023-05-17T04:00:33.697Z,5.20
2023-05-17T04:03:00.872Z,6.13
2023-05-17T04:05:28.321Z,5.38
2023-05-17T04:07:55.965Z,5.55
2023-05-17T04:10:23.238Z,5.60
2023-05-17T04:12:50.361Z,5.55
2023-05-17T04:15:17.531Z,6.93
2023-05-17T04:17:44.762Z,6.10
2023-05-17T04:20:12.317Z,6.80
2023-05-17T04:22:39.495Z,6.07
2023-05-17T04:25:06.931Z,5.40
2023-05-17T04:27:34.011Z,6.88
2023-05-17T04:30:01.128Z,6.55
2023-05-17T04:32:28.755Z,6.57
2023-05-17T04:34:56.322Z,6.20
2023-05-17T04:37:23.666Z,7.15
2023-05-17T04:39:52.879Z,6.78
2023-05-17T04:42:19.999Z,5.53
2023-05-17T04:44:48.527Z,5.95
2023-05-17T04:47:15.622Z,5.35
2023-05-17T04:49:43.352Z,5.28
2023-05-17T04:52:10.510Z,5.35
2023-05-17T04:54:37.705Z,4.55
2023-05-17T04:57:04.919Z,5.35
2023-05-17T04:59:32.047Z,5.32
2023-05-17T05:01:59.148Z,5.20
2023-05-17T05:04:26.345Z,5.20
2023-05-17T05:06:53.503Z,5.22
2023-05-17T05:09:20.768Z,4.60
2023-05-17T05:11:47.878Z,5.28
2023-05-17T05:14:14.995Z,4.75
2023-05-17T05:16:42.143Z,4.78
2023-05-17T05:19:10.218Z,5.60
2023-05-17T05:21:37.606Z,5.60
2023-05-17T05:24:04.849Z,5.05
2023-05-17T05:26:32.091Z,4.65
2023-05-17T05:28:59.179Z,5.00
2023-05-17T05:31:26.247Z,3.85
2023-05-17T05:33:53.518Z,4.40
2023-05-17T05:36:20.709Z,4.70
2023-05-17T05:38:48.069Z,4.20
2023-05-17T05:41:15.122Z,4.70
2023-05-17T05:43:42.225Z,4.50
2023-05-17T05:46:09.346Z,3.92
2023-05-17T05:48:39.545Z,3.90
2023-05-17T05:51:06.796Z,4.18
2023-05-17T05:53:33.898Z,4.38
2023-05-17T05:56:01.182Z,4.32
2023-05-17T05:58:28.327Z,4.55
2023-05-17T06:00:55.720Z,4.07
2023-05-17T06:03:22.829Z,4.35
2023-05-17T06:05:50.154Z,4.18
2023-05-17T06:08:17.345Z,3.85
2023-05-17T06:10:44.555Z,4.32
2023-05-17T06:13:11.767Z,4.30
2023-05-17T06:15:38.906Z,3.70
2023-05-17T06:18:06.108Z,4.13
2023-05-17T06:20:33.303Z,4.35
2023-05-17T06:23:00.598Z,4.47
2023-05-17T06:25:27.755Z,3.92
2023-05-17T06:27:54.853Z,3.83
2023-05-17T06:30:22.266Z,4.68
2023-05-17T06:32:49.516Z,4.72
2023-05-17T06:35:16.743Z,4.28
2023-05-17T06:37:43.844Z,3.58
2023-05-17T06:40:16.414Z,3.78
2023-05-17T06:42:44.010Z,4.05
2023-05-17T06:45:11.442Z,3.80
2023-05-17T06:47:38.838Z,4.15
2023-05-17T06:50:06.836Z,4.03
2023-05-17T06:52:33.948Z,4.13
2023-05-17T06:55:01.059Z,3.75
2023-05-17T06:57:28.191Z,3.92
2023-05-17T06:59:55.297Z,3.78
2023-05-17T07:02:22.450Z,3.65
2023-05-17T07:04:49.643Z,3.85
2023-05-17T07:07:16.848Z,3.88
2023-05-17T07:09:43.975Z,4.22
2023-05-17T07:12:11.128Z,3.55
2023-05-17T07:14:38.365Z,3.63
2023-05-17T07:17:05.572Z,4.07
2023-05-17T07:19:32.761Z,3.40
2023-05-17T07:21:59.996Z,3.30
2023-05-17T07:24:27.141Z,3.90
2023-05-17T07:26:54.316Z,3.15
2023-05-17T07:29:21.485Z,3.67
2023-05-17T07:31:48.633Z,3.50
2023-05-17T07:34:15.828Z,3.42
2023-05-17T07:36:42.973Z,3.83
2023-05-17T07:39:10.196Z,2.92
2023-05-17T07:41:37.577Z,3.00
2023-05-17T07:44:04.736Z,3.10
2023-05-17T07:46:31.932Z,3.35
2023-05-17T07:48:59.232Z,3.63
2023-05-17T07:51:26.622Z,3.35
2023-05-17T07:53:53.883Z,3.38
2023-05-17T07:56:21.158Z,3.60
2023-05-17T07:58:48.390Z,3.30
2023-05-17T08:01:15.505Z,2.80
2023-05-17T08:03:47.966Z,3.78
2023-05-17T08:06:18.344Z,3.40
2023-05-17T08:08:45.679Z,3.70
2023-05-17T08:11:13.156Z,3.55
2023-05-17T08:13:40.300Z,3.47
2023-05-17T08:16:14.014Z,2.42
2023-05-17T08:18:43.202Z,2.38
2023-05-17T08:21:11.266Z,2.78
2023-05-17T08:23:38.505Z,2.55
2023-05-17T08:26:05.683Z,2.53
2023-05-17T08:28:32.863Z,3.00
2023-05-17T08:31:00.023Z,2.80
2023-05-17T08:33:27.485Z,3.00
2023-05-17T08:35:55.433Z,2.50
2023-05-17T08:38:22.901Z,2.00
2023-05-17T08:40:56.596Z,2.00
2023-05-17T08:43:27.351Z,2.38
2023-05-17T08:45:57.618Z,2.00
2023-05-17T08:51:04.253Z,2.33
2023-05-17T08:53:31.443Z,1.85
2023-05-17T08:56:00.648Z,1.67
2023-05-17T08:58:29.991Z,1.92
2023-05-17T09:03:25.635Z,2.00
2023-05-17T09:05:53.658Z,1.80
2023-05-17T09:08:21.666Z,2.25
2023-05-17T09:10:48.811Z,2.20
2023-05-17T09:13:16.118Z,1.80
2023-05-17T09:15:43.937Z,2.25
2023-05-17T09:18:15.778Z,2.45
2023-05-17T09:20:47.421Z,1.90
2023-05-17T09:23:14.663Z,2.40
2023-05-17T09:25:48.351Z,2.15
2023-05-17T09:28:15.548Z,2.30
2023-05-17T09:30:42.949Z,1.92
2023-05-17T09:33:11.847Z,1.65
2023-05-17T09:35:42.294Z,1.73
2023-05-17T09:38:09.977Z,2.17
2023-05-17T09:40:40.296Z,1.65
2023-05-17T09:43:17.370Z,1.48
2023-05-17T09:45:44.627Z,1.42
2023-05-17T09:48:12.632Z,2.00
2023-05-17T09:50:44.220Z,1.85
2023-05-17T09:53:30.194Z,1.63
2023-05-17T09:56:00.650Z,1.92
2023-05-17T09:58:29.041Z,1.83
2023-05-17T10:01:05.902Z,1.75
2023-05-17T10:03:42.493Z,1.65
2023-05-17T10:06:27.791Z,1.90
2023-05-17T10:09:00.650Z,2.03
2023-05-17T10:11:34.305Z,1.90
2023-05-17T10:14:12.496Z,1.73
2023-05-17T10:16:39.790Z,1.95
2023-05-17T10:19:12.817Z,2.00
2023-05-17T10:21:40.058Z,2.13
2023-05-17T10:24:07.953Z,2.20
2023-05-17T10:26:35.714Z,2.00
2023-05-17T10:29:03.737Z,1.92
2023-05-17T10:31:33.089Z,2.33
2023-05-17T10:34:01.871Z,2.27
2023-05-17T10:36:28.973Z,1.92
2023-05-17T10:38:56.496Z,2.28
2023-05-17T10:41:24.377Z,1.92
2023-05-17T10:43:51.764Z,2.60
2023-05-17T10:46:22.297Z,2.58
2023-05-17T10:48:58.262Z,2.22
2023-05-17T10:51:26.394Z,2.40
2023-05-17T10:54:28.801Z,2.55
2023-05-17T10:56:55.956Z,2.80
2023-05-17T10:59:25.034Z,2.20
2023-05-17T11:02:09.438Z,2.50
2023-05-17T11:04:43.196Z,2.22
2023-05-17T11:07:22.051Z,2.28
2023-05-17T11:09:56.346Z,1.95
2023-05-17T11:12:34.894Z,2.10
2023-05-17T11:15:08.553Z,2.25
2023-05-17T11:17:36.953Z,2.00
2023-05-17T11:20:13.539Z,2.60
2023-05-17T11:22:42.288Z,2.28
2023-05-17T11:25:10.188Z,1.85
2023-05-17T11:27:38.176Z,1.90
2023-05-17T11:30:18.321Z,1.70
2023-05-17T11:35:12.766Z,2.13
2023-05-17T11:37:39.853Z,2.10
2023-05-17T11:40:08.118Z,1.63
2023-05-17T11:42:39.397Z,1.90
2023-05-17T11:45:07.162Z,2.03
2023-05-17T11:47:34.486Z,2.20
2023-05-17T11:50:02.406Z,1.90
2023-05-17T11:52:29.706Z,2.05
2023-05-17T11:54:57.932Z,1.95
2023-05-17T11:57:31.405Z,1.83
2023-05-17T12:00:07.490Z,1.80
2023-05-17T12:02:34.903Z,2.20
2023-05-17T12:05:02.137Z,1.98
2023-05-17T12:07:29.674Z,2.00
2023-05-17T12:09:56.866Z,2.15
2023-05-17T12:12:24.007Z,1.85
2023-05-17T12:14:51.339Z,1.90
2023-05-17T12:17:29.829Z,1.90
2023-05-17T12:19:57.070Z,2.28
2023-05-17T12:22:24.213Z,2.08
2023-05-17T12:24:51.771Z,2.05
2023-05-17T12:27:26.087Z,2.28
2023-05-17T12:29:54.121Z,1.55
2023-05-17T12:32:21.402Z,2.20
2023-05-17T12:34:49.350Z,2.05
2023-05-17T12:37:16.536Z,2.20
2023-05-17T12:39:43.738Z,2.45
2023-05-17T12:42:10.941Z,2.05
2023-05-17T12:44:38.168Z,2.20
2023-05-17T12:47:05.386Z,2.45
2023-05-17T12:49:32.492Z,2.13
2023-05-17T12:52:04.133Z,1.83
2023-05-17T12:54:31.308Z,1.52
2023-05-17T12:56:58.537Z,2.10
2023-05-17T12:59:26.158Z,2.08
2023-05-17T13:01:55.563Z,2.25
2023-05-17T13:04:29.140Z,1.80
2023-05-17T13:06:57.459Z,2.05
2023-05-17T13:09:25.360Z,2.67
2023-05-17T13:11:53.108Z,2.20
2023-05-17T13:14:36.619Z,2.10
2023-05-17T13:17:04.487Z,1.75
2023-05-17T13:19:31.638Z,2.53
2023-05-17T13:21:58.837Z,1.90
2023-05-17T13:24:28.035Z,2.58
2023-05-17T13:26:55.384Z,2.33
2023-05-17T13:29:35.190Z,2.10
2023-05-17T13:32:07.085Z,1.88
2023-05-17T13:34:34.221Z,1.95
2023-05-17T13:37:01.788Z,2.10
2023-05-17T13:39:28.945Z,1.88
2023-05-17T13:41:56.093Z,1.90
2023-05-17T13:44:23.255Z,1.80
2023-05-17T13:46:50.517Z,1.85
2023-05-17T13:49:17.799Z,2.10
2023-05-17T13:51:45.039Z,1.90
2023-05-17T13:54:12.640Z,1.48
2023-05-17T13:56:39.742Z,2.08
2023-05-17T13:59:06.938Z,2.13
2023-05-17T14:01:34.322Z,2.00
2023-05-17T14:04:01.582Z,2.15
2023-05-17T14:06:29.025Z,2.03
2023-05-17T14:08:57.631Z,2.10
2023-05-17T14:11:24.742Z,2.72
2023-05-17T14:13:51.924Z,2.42
2023-05-17T14:16:19.008Z,2.17
2023-05-17T14:18:46.432Z,2.38
2023-05-17T14:21:13.659Z,2.22
2023-05-17T14:23:40.704Z,2.58
2023-05-17T14:26:09.242Z,2.05
2023-05-17T14:28:38.899Z,2.00
2023-05-17T14:31:07.119Z,1.83
2023-05-17T14:33:34.401Z,1.75
2023-05-17T14:36:01.627Z,1.85
2023-05-17T14:38:28.833Z,1.92
2023-05-17T14:40:56.108Z,2.13
2023-05-17T14:43:23.768Z,2.25
2023-05-17T14:45:51.225Z,2.17
2023-05-17T14:48:18.502Z,2.35
2023-05-17T14:50:45.903Z,2.30
2023-05-17T14:53:13.317Z,1.63
2023-05-17T14:55:40.513Z,1.70
2023-05-17T14:58:07.656Z,1.77
2023-05-17T15:00:34.776Z,1.85
2023-05-17T15:03:02.125Z,2.00
2023-05-17T15:05:29.698Z,1.65
2023-05-17T15:07:57.636Z,2.10
2023-05-17T15:10:24.841Z,1.88
2023-05-17T15:12:52.424Z,1.65
2023-05-17T15:15:22.053Z,1.88
2023-05-17T15:17:49.390Z,2.17
2023-05-17T15:20:16.957Z,1.70
2023-05-17T15:22:44.514Z,1.85
2023-05-17T15:25:11.696Z,2.10
2023-05-17T15:27:38.861Z,1.90
2023-05-17T15:30:06.581Z,2.00
2023-05-17T15:32:34.525Z,1.67
2023-05-17T15:35:01.712Z,1.83
2023-05-17T15:37:28.872Z,2.42
2023-05-17T15:39:56.122Z,1.70
2023-05-17T15:42:23.247Z,1.65
2023-05-17T15:44:50.380Z,1.77
2023-05-17T15:47:17.441Z,2.40
2023-05-17T15:49:44.536Z,1.95
2023-05-17T15:52:12.693Z,1.98
2023-05-17T15:54:39.950Z,1.42
2023-05-17T15:57:07.305Z,1.95
2023-05-17T15:59:34.579Z,1.88
2023-05-17T16:02:01.670Z,1.85
2023-05-17T16:04:28.905Z,1.50
2023-05-17T16:06:56.383Z,1.70
2023-05-17T16:09:23.880Z,1.92
2023-05-17T16:11:51.069Z,1.77
2023-05-17T16:14:18.228Z,1.63
2023-05-17T16:16:45.483Z,1.77
2023-05-17T16:19:12.746Z,1.90
2023-05-17T16:21:40.110Z,1.75
2023-05-17T16:24:07.531Z,1.80
2023-05-17T16:26:35.502Z,1.95
2023-05-17T16:29:02.602Z,1.95
2023-05-17T16:31:29.822Z,2.40
2023-05-17T16:33:57.004Z,1.90
2023-05-17T16:36:25.147Z,1.80
2023-05-17T16:38:52.551Z,1.80
2023-05-17T16:41:19.689Z,1.58
2023-05-17T16:43:46.817Z,2.20
2023-05-17T16:46:13.947Z,2.30
2023-05-17T16:48:41.162Z,2.47
2023-05-17T16:51:08.273Z,2.33
2023-05-17T16:53:35.429Z,1.92
2023-05-17T16:56:02.579Z,1.90
2023-05-17T16:58:29.759Z,1.60
2023-05-17T17:00:57.302Z,2.10
2023-05-17T17:03:24.656Z,1.90
2023-05-17T17:05:51.888Z,1.92
2023-05-17T17:08:19.018Z,1.90
2023-05-17T17:10:46.234Z,1.80
2023-05-17T17:13:13.324Z,3.65
2023-05-17T17:15:41.136Z,2.17
2023-05-17T17:18:08.361Z,1.85
2023-05-17T17:20:35.964Z,2.45
2023-05-17T17:23:03.659Z,2.80
2023-05-17T17:25:31.050Z,3.40
2023-05-17T17:27:58.209Z,1.85
2023-05-17T17:30:25.395Z,1.55
2023-05-17T17:32:52.617Z,1.95
2023-05-17T17:35:20.046Z,1.77
2023-05-17T17:37:47.226Z,2.20
2023-05-17T17:40:14.350Z,2.03
2023-05-17T17:42:41.447Z,1.92
2023-05-17T17:45:08.815Z,2.10
2023-05-17T17:47:35.973Z,1.70
2023-05-17T17:50:03.442Z,2.05
2023-05-17T17:52:30.572Z,1.80
2023-05-17T17:54:57.671Z,1.67
2023-05-17T17:57:24.782Z,1.90
2023-05-17T17:59:52.103Z,1.90
2023-05-17T18:02:19.180Z,1.60
2023-05-17T18:04:46.313Z,1.95
2023-05-17T18:07:16.247Z,1.90
2023-05-17T18:09:43.604Z,2.13
2023-05-17T18:12:10.742Z,2.45
2023-05-17T18:14:37.882Z,2.45
2023-05-17T18:17:05.416Z,1.77
2023-05-17T18:19:32.602Z,2.20
2023-05-17T18:21:59.725Z,2.15
2023-05-17T18:24:26.806Z,1.70
2023-05-17T18:26:54.041Z,2.05
2023-05-17T18:29:21.119Z,2.00
2023-05-17T18:31:48.400Z,1.98
2023-05-17T18:34:18.074Z,1.70
2023-05-17T18:36:45.929Z,2.65
2023-05-17T18:39:13.081Z,2.33
2023-05-17T18:41:40.381Z,2.25
2023-05-17T18:44:07.461Z,1.85
2023-05-17T18:46:34.656Z,1.98
2023-05-17T18:49:01.800Z,2.42
2023-05-17T18:51:28.869Z,2.28
2023-05-17T18:53:55.935Z,1.80
2023-05-17T18:56:25.016Z,2.50
2023-05-17T18:58:55.049Z,2.97
2023-05-17T19:01:22.274Z,2.10
2023-05-17T19:03:51.617Z,2.65
2023-05-17T19:06:19.630Z,2.25
2023-05-17T19:08:46.865Z,2.42
2023-05-17T19:11:14.009Z,2.83
2023-05-17T19:13:41.224Z,2.60
2023-05-17T19:16:08.494Z,3.38
2023-05-17T19:18:36.042Z,2.40
2023-05-17T19:21:03.521Z,2.85
2023-05-17T19:23:32.125Z,2.70
2023-05-17T19:25:59.398Z,3.30
2023-05-17T19:28:26.647Z,2.78
2023-05-17T19:30:53.902Z,2.28
2023-05-17T19:33:21.084Z,2.30
2023-05-17T19:35:48.223Z,2.50
2023-05-17T19:38:15.608Z,2.75
2023-05-17T19:40:42.767Z,2.45
2023-05-17T19:43:09.837Z,2.40
2023-05-17T19:45:37.005Z,2.47
2023-05-17T19:48:07.300Z,2.88
2023-05-17T19:50:35.009Z,2.63
2023-05-17T19:53:02.247Z,4.70
2023-05-17T19:55:30.309Z,2.70
2023-05-17T19:57:57.750Z,2.50
2023-05-17T20:00:25.042Z,2.35
2023-05-17T20:02:52.445Z,2.25
2023-05-17T20:05:19.740Z,2.42
2023-05-17T20:07:46.819Z,2.47
2023-05-17T20:10:14.072Z,2.45
2023-05-17T20:12:41.872Z,2.47
2023-05-17T20:15:09.376Z,2.67
2023-05-17T20:17:36.494Z,3.30
2023-05-17T20:20:05.232Z,3.08
2023-05-17T20:22:33.140Z,3.30
2023-05-17T20:25:00.367Z,3.10
2023-05-17T20:27:27.536Z,3.33
2023-05-17T20:29:54.648Z,2.92
2023-05-17T20:32:21.772Z,2.58
2023-05-17T20:34:48.930Z,2.38
2023-05-17T20:37:16.046Z,2.50
2023-05-17T20:39:43.236Z,2.92
2023-05-17T20:42:10.406Z,2.85
2023-05-17T20:44:37.530Z,2.47
2023-05-17T20:47:05.916Z,2.47
2023-05-17T20:49:33.034Z,2.05
2023-05-17T20:52:03.502Z,2.28
2023-05-17T20:54:30.737Z,2.55
2023-05-17T20:57:01.931Z,2.45
2023-05-17T20:59:29.065Z,3.97
2023-05-17T21:01:56.515Z,2.80
2023-05-17T21:04:23.714Z,2.40
2023-05-17T21:06:52.225Z,2.70
2023-05-17T21:09:19.329Z,2.15
2023-05-17T21:11:46.539Z,2.60
2023-05-17T21:14:13.682Z,2.30
2023-05-17T21:16:40.837Z,2.90
2023-05-17T21:19:08.793Z,2.47
2023-05-17T21:21:36.791Z,3.58
2023-05-17T21:24:04.010Z,2.75
2023-05-17T21:26:31.186Z,2.80
2023-05-17T21:28:58.356Z,2.92
2023-05-17T21:31:25.567Z,2.65
2023-05-17T21:33:52.666Z,2.88
2023-05-17T21:36:19.735Z,2.33
2023-05-17T21:38:46.809Z,2.97
2023-05-17T21:41:13.991Z,2.50
2023-05-17T21:43:41.765Z,2.85
2023-05-17T21:46:08.866Z,2.88
2023-05-17T21:48:35.991Z,2.80
2023-05-17T21:51:03.093Z,2.60
2023-05-17T21:53:30.261Z,3.03
2023-05-17T21:56:02.727Z,2.85
2023-05-17T21:58:31.024Z,2.20
2023-05-17T22:00:58.504Z,3.05
2023-05-17T22:03:26.007Z,2.85
2023-05-17T22:05:53.222Z,2.95
2023-05-17T22:08:20.368Z,3.50
2023-05-17T22:10:47.554Z,3.28
2023-05-17T22:13:18.010Z,2.72
2023-05-17T22:15:45.287Z,2.58
2023-05-17T22:18:13.648Z,2.90
2023-05-17T22:20:40.813Z,2.67
2023-05-17T22:23:08.054Z,2.58
2023-05-17T22:25:35.865Z,2.47
2023-05-17T22:28:03.189Z,3.95
2023-05-17T22:30:30.397Z,3.13
2023-05-17T22:32:57.666Z,2.90
2023-05-17T22:35:24.886Z,2.80
2023-05-17T22:37:53.270Z,2.83
2023-05-17T22:40:20.543Z,2.70
2023-05-17T22:42:48.253Z,2.58
2023-05-17T22:45:15.527Z,2.45
2023-05-17T22:47:42.684Z,2.55
2023-05-17T22:50:14.558Z,2.60
2023-05-17T22:52:42.660Z,3.15
2023-05-17T22:55:10.508Z,3.33
2023-05-17T22:57:37.598Z,3.03
2023-05-17T23:00:09.408Z,2.83
2023-05-17T23:02:36.641Z,2.80
2023-05-17T23:05:03.985Z,2.95
2023-05-17T23:07:38.136Z,2.85
2023-05-17T23:10:06.918Z,3.33
2023-05-17T23:12:34.255Z,2.70
2023-05-17T23:15:01.407Z,2.90
2023-05-17T23:17:35.605Z,2.85
2023-05-17T23:20:06.912Z,3.00
2023-05-17T23:22:34.045Z,3.03
2023-05-17T23:25:03.311Z,2.60
2023-05-17T23:27:30.590Z,3.38
2023-05-17T23:29:57.750Z,3.17
2023-05-17T23:32:25.009Z,2.92
2023-05-17T23:34:58.414Z,2.90
2023-05-17T23:37:25.724Z,2.47
2023-05-17T23:39:52.813Z,2.58
2023-05-17T23:42:20.333Z,2.28
2023-05-17T23:44:48.892Z,2.97
2023-05-17T23:47:16.236Z,2.88
2023-05-17T23:49:43.281Z,2.95
2023-05-17T23:52:10.989Z,2.78
2023-05-17T23:54:39.060Z,2.95
2023-05-17T23:57:06.474Z,2.97
2023-05-17T23:59:34.070Z,2.67
